Startpagina
METAR-TAF:

METAR-TAF

Vliegvelden :

Malé International Airport

Malé, Maldiven

breedte: 04-12N, lengte: 073-32E, hoogte: 2 m

Actueel weer

Dit bericht is 42 minuten geleden gemaakt, om 03:00 UTC
Wind 11 kt uit het westzuidwesten
Temperatuur 31°C
Vochtigheid 79%
Druk 1012 hPa
Zicht 10 km of meer
Weinig wolken op 1800 ft
Gebroken wolken op 28000 ft

METAR: VRMM 130300Z 25011KT 9999 FEW018 BKN280 31/27 Q1012 NOSIG

Tijdstip: 08:42 (03:42 UTC)

Verwachting

Dit bericht is 4 uur en het 42 minuten geleden gemaakt, om 23:00 UTC
Verwachting geldig van 13 om 00 UTC tot 14 om 06 UTC
Wind 11 kt uit het westzuidwesten
Zicht 10 km of meer
Weinig wolken op 1800 ft, Stapelwolken.
Tijdelijke
van 13 om 02 UTC tot 13 om 08 UTC
Weinig wolken op 1900 ft, Cumulonimbus.

TAF: VRMM 122300Z 1300/1406 25011KT 9999 FEW018TCU TEMPO 1302/1308 FEW019CB

Waarnemingen en weersverwachtingen van meer dan 4000 vliegvelden (METAR en TAF).

De beschikbare stations zijn de gele en rode punten op de kaart.

Ga met uw muis naar het station om de naam te zien.

Klik dan om waarnemingen en weersverwachtingen te zien.

kaart wijzigen: klik op de groene knoppen met een zwart kruis om in te zoomen, op de groene knop met een streepje om uit te zoomen of op de groene pijlen voor aangrenzende kaarten.


METAR-TAF: